sensor_id;sensor_type;location;lat;lon;timestamp;pressure;altitude;pressure_sealevel;temperature;humidity
62402;BME280;48440;51.224;22.506;2023-03-01T00:01:30;100412.44;;;-1.82;66.57
62402;BME280;48440;51.224;22.506;2023-03-01T00:04:05;100415.78;;;-1.80;66.38
62402;BME280;48440;51.224;22.506;2023-03-01T00:06:35;100412.97;;;-1.78;65.88
62402;BME280;48440;51.224;22.506;2023-03-01T00:09:06;100420.28;;;-1.80;65.99
62402;BME280;48440;51.224;22.506;2023-03-01T00:11:34;100414.44;;;-1.84;66.27
62402;BME280;48440;51.224;22.506;2023-03-01T00:14:01;100413.44;;;-1.83;66.01
62402;BME280;48440;51.224;22.506;2023-03-01T00:16:31;100420.41;;;-1.82;65.62
62402;BME280;48440;51.224;22.506;2023-03-01T00:19:01;100415.28;;;-1.83;65.89
62402;BME280;48440;51.224;22.506;2023-03-01T00:21:30;100421.44;;;-1.83;65.47
62402;BME280;48440;51.224;22.506;2023-03-01T00:23:56;100410.09;;;-1.85;65.56
62402;BME280;48440;51.224;22.506;2023-03-01T00:26:28;100408.28;;;-1.84;65.40
62402;BME280;48440;51.224;22.506;2023-03-01T00:29:08;100402.81;;;-1.83;65.55
62402;BME280;48440;51.224;22.506;2023-03-01T00:31:33;100396.66;;;-1.83;65.49
62402;BME280;48440;51.224;22.506;2023-03-01T00:34:02;100401.13;;;-1.84;65.73
62402;BME280;48440;51.224;22.506;2023-03-01T00:36:45;100393.00;;;-1.82;65.42
62402;BME280;48440;51.224;22.506;2023-03-01T00:42:31;100388.13;;;-1.87;65.77
62402;BME280;48440;51.224;22.506;2023-03-01T00:44:57;100380.44;;;-1.90;65.69
62402;BME280;48440;51.224;22.506;2023-03-01T00:47:22;100377.63;;;-1.88;65.93
62402;BME280;48440;51.224;22.506;2023-03-01T00:50:19;100378.16;;;-1.85;65.45
62402;BME280;48440;51.224;22.506;2023-03-01T00:52:46;100362.50;;;-1.88;65.56
62402;BME280;48440;51.224;22.506;2023-03-01T00:55:17;100365.16;;;-1.88;65.50
62402;BME280;48440;51.224;22.506;2023-03-01T00:57:45;100359.13;;;-1.90;65.64
62402;BME280;48440;51.224;22.506;2023-03-01T01:03:14;100373.56;;;-1.92;65.24
62402;BME280;48440;51.224;22.506;2023-03-01T01:05:47;100367.41;;;-1.93;65.30
62402;BME280;48440;51.224;22.506;2023-03-01T01:11:34;100370.97;;;-2.02;65.58
62402;BME280;48440;51.224;22.506;2023-03-01T01:14:14;100375.22;;;-2.09;65.62
62402;BME280;48440;51.224;22.506;2023-03-01T01:16:45;100372.56;;;-2.09;65.84
62402;BME280;48440;51.224;22.506;2023-03-01T01:19:12;100373.22;;;-2.07;65.74
62402;BME280;48440;51.224;22.506;2023-03-01T01:21:59;100370.88;;;-2.10;65.50
62402;BME280;48440;51.224;22.506;2023-03-01T01:24:39;100363.59;;;-2.08;66.08
62402;BME280;48440;51.224;22.506;2023-03-01T01:27:37;100356.97;;;-2.04;65.89
62402;BME280;48440;51.224;22.506;2023-03-01T01:30:09;100369.44;;;-2.05;65.85
62402;BME280;48440;51.224;22.506;2023-03-01T01:32:37;100369.44;;;-2.05;65.54
62402;BME280;48440;51.224;22.506;2023-03-01T01:35:14;100372.38;;;-2.08;65.97
62402;BME280;48440;51.224;22.506;2023-03-01T01:37:44;100368.91;;;-2.08;66.27
62402;BME280;48440;51.224;22.506;2023-03-01T01:40:26;100366.41;;;-2.10;65.94
62402;BME280;48440;51.224;22.506;2023-03-01T01:43:37;100366.25;;;-2.08;65.85
62402;BME280;48440;51.224;22.506;2023-03-01T01:46:24;100369.19;;;-2.11;65.94
62402;BME280;48440;51.224;22.506;2023-03-01T01:48:57;100363.88;;;-2.11;65.80
62402;BME280;48440;51.224;22.506;2023-03-01T01:51:47;100358.72;;;-2.13;65.62
62402;BME280;48440;51.224;22.506;2023-03-01T01:54:25;100360.53;;;-2.13;65.85
62402;BME280;48440;51.224;22.506;2023-03-01T01:56:57;100341.91;;;-2.13;66.03
62402;BME280;48440;51.224;22.506;2023-03-01T01:59:26;100349.75;;;-2.12;65.96
62402;BME280;48440;51.224;22.506;2023-03-01T02:01:59;100342.59;;;-2.11;65.95
62402;BME280;48440;51.224;22.506;2023-03-01T02:08:35;100328.34;;;-2.20;65.85
62402;BME280;48440;51.224;22.506;2023-03-01T02:11:27;100334.97;;;-2.24;66.18
62402;BME280;48440;51.224;22.506;2023-03-01T02:14:10;100329.78;;;-2.25;66.25
62402;BME280;48440;51.224;22.506;2023-03-01T02:16:49;100330.78;;;-2.26;66.68
62402;BME280;48440;51.224;22.506;2023-03-01T02:22:58;100304.75;;;-2.32;67.09
62402;BME280;48440;51.224;22.506;2023-03-01T02:28:38;100325.19;;;-2.33;66.97
62402;BME280;48440;51.224;22.506;2023-03-01T02:32:04;100317.91;;;-2.31;67.24
62402;BME280;48440;51.224;22.506;2023-03-01T02:34:53;100329.66;;;-2.33;67.37
62402;BME280;48440;51.224;22.506;2023-03-01T02:37:20;100328.31;;;-2.37;67.70
62402;BME280;48440;51.224;22.506;2023-03-01T02:40:10;100336.59;;;-2.41;67.90
62402;BME280;48440;51.224;22.506;2023-03-01T02:42:51;100341.75;;;-2.39;67.58
62402;BME280;48440;51.224;22.506;2023-03-01T02:48:07;100328.19;;;-2.46;68.11
62402;BME280;48440;51.224;22.506;2023-03-01T02:53:45;100318.84;;;-2.50;68.08
62402;BME280;48440;51.224;22.506;2023-03-01T02:56:31;100315.78;;;-2.55;68.44
62402;BME280;48440;51.224;22.506;2023-03-01T02:59:00;100315.91;;;-2.56;68.57
62402;BME280;48440;51.224;22.506;2023-03-01T03:01:28;100325.72;;;-2.57;68.47
62402;BME280;48440;51.224;22.506;2023-03-01T03:04:09;100316.22;;;-2.59;68.55
62402;BME280;48440;51.224;22.506;2023-03-01T03:06:54;100326.31;;;-2.63;68.89
62402;BME280;48440;51.224;22.506;2023-03-01T03:13:00;100314.84;;;-2.63;68.69
62402;BME280;48440;51.224;22.506;2023-03-01T03:18:31;100300.72;;;-2.64;68.88
62402;BME280;48440;51.224;22.506;2023-03-01T03:30:19;100299.97;;;-2.56;68.55
62402;BME280;48440;51.224;22.506;2023-03-01T03:33:18;100299.81;;;-2.55;68.81
62402;BME280;48440;51.224;22.506;2023-03-01T03:35:52;100289.34;;;-2.56;68.83
62402;BME280;48440;51.224;22.506;2023-03-01T03:41:44;100282.06;;;-2.54;68.87
62402;BME280;48440;51.224;22.506;2023-03-01T03:44:22;100298.16;;;-2.56;69.46
62402;BME280;48440;51.224;22.506;2023-03-01T03:46:53;100289.06;;;-2.53;69.16
62402;BME280;48440;51.224;22.506;2023-03-01T03:49:18;100288.06;;;-2.52;69.34
62402;BME280;48440;51.224;22.506;2023-03-01T03:51:45;100286.94;;;-2.50;69.40
62402;BME280;48440;51.224;22.506;2023-03-01T03:54:11;100280.94;;;-2.52;69.47
62402;BME280;48440;51.224;22.506;2023-03-01T03:56:36;100291.72;;;-2.53;69.60
62402;BME280;48440;51.224;22.506;2023-03-01T03:59:02;100295.34;;;-2.54;69.47
62402;BME280;48440;51.224;22.506;2023-03-01T04:01:33;100286.41;;;-2.53;69.38
62402;BME280;48440;51.224;22.506;2023-03-01T04:04:01;100289.06;;;-2.53;69.46
62402;BME280;48440;51.224;22.506;2023-03-01T04:06:34;100288.91;;;-2.52;69.38
62402;BME280;48440;51.224;22.506;2023-03-01T04:09:00;100285.69;;;-2.55;69.63
62402;BME280;48440;51.224;22.506;2023-03-01T04:11:32;100273.94;;;-2.53;69.39
62402;BME280;48440;51.224;22.506;2023-03-01T04:14:40;100265.13;;;-2.53;69.71
62402;BME280;48440;51.224;22.506;2023-03-01T04:17:54;100259.38;;;-2.49;69.86
62402;BME280;48440;51.224;22.506;2023-03-01T04:27:03;100256.19;;;-2.52;70.17
62402;BME280;48440;51.224;22.506;2023-03-01T04:29:47;100250.03;;;-2.53;70.02
62402;BME280;48440;51.224;22.506;2023-03-01T04:32:15;100257.31;;;-2.55;69.81
62402;BME280;48440;51.224;22.506;2023-03-01T04:38:01;100253.25;;;-2.59;69.87
62402;BME280;48440;51.224;22.506;2023-03-01T04:40:39;100245.13;;;-2.57;70.00
62402;BME280;48440;51.224;22.506;2023-03-01T04:43:51;100248.97;;;-2.60;69.98
62402;BME280;48440;51.224;22.506;2023-03-01T04:49:55;100244.25;;;-2.48;69.74
62402;BME280;48440;51.224;22.506;2023-03-01T04:55:55;100230.94;;;-2.38;69.39
62402;BME280;48440;51.224;22.506;2023-03-01T05:01:38;100233.28;;;-2.35;69.07
62402;BME280;48440;51.224;22.506;2023-03-01T05:04:04;100236.41;;;-2.40;69.27
62402;BME280;48440;51.224;22.506;2023-03-01T05:06:31;100243.38;;;-2.39;69.56
62402;BME280;48440;51.224;22.506;2023-03-01T05:08:57;100237.38;;;-2.41;69.42
62402;BME280;48440;51.224;22.506;2023-03-01T05:11:23;100246.19;;;-2.41;69.08
62402;BME280;48440;51.224;22.506;2023-03-01T05:13:48;100245.66;;;-2.44;69.61
62402;BME280;48440;51.224;22.506;2023-03-01T05:16:18;100238.13;;;-2.49;69.81
62402;BME280;48440;51.224;22.506;2023-03-01T05:18:45;100230.13;;;-2.49;69.83
62402;BME280;48440;51.224;22.506;2023-03-01T05:21:13;100232.78;;;-2.49;69.67
62402;BME280;48440;51.224;22.506;2023-03-01T05:23:41;100239.25;;;-2.51;69.76
62402;BME280;48440;51.224;22.506;2023-03-01T05:26:08;100243.03;;;-2.54;69.99
62402;BME280;48440;51.224;22.506;2023-03-01T05:28:34;100236.72;;;-2.53;69.89
62402;BME280;48440;51.224;22.506;2023-03-01T05:31:00;100237.72;;;-2.54;70.16
62402;BME280;48440;51.224;22.506;2023-03-01T05:33:27;100235.44;;;-2.49;70.83
62402;BME280;48440;51.224;22.506;2023-03-01T05:35:53;100231.53;;;-2.45;70.70
62402;BME280;48440;51.224;22.506;2023-03-01T05:38:19;100233.94;;;-2.33;70.17
62402;BME280;48440;51.224;22.506;2023-03-01T05:40:47;100239.13;;;-2.32;70.07
62402;BME280;48440;51.224;22.506;2023-03-01T05:43:15;100234.50;;;-2.30;70.17
62402;BME280;48440;51.224;22.506;2023-03-01T05:45:41;100240.34;;;-2.26;70.32
62402;BME280;48440;51.224;22.506;2023-03-01T05:48:09;100242.56;;;-2.22;69.96
62402;BME280;48440;51.224;22.506;2023-03-01T05:50:37;100259.91;;;-2.18;69.85
62402;BME280;48440;51.224;22.506;2023-03-01T05:53:07;100247.44;;;-2.17;70.26
62402;BME280;48440;51.224;22.506;2023-03-01T05:55:34;100253.44;;;-2.15;70.14
62402;BME280;48440;51.224;22.506;2023-03-01T05:58:05;100255.97;;;-2.14;70.21
62402;BME280;48440;51.224;22.506;2023-03-01T06:00:31;100261.81;;;-2.10;70.23
62402;BME280;48440;51.224;22.506;2023-03-01T06:02:59;100273.31;;;-2.10;70.51
62402;BME280;48440;51.224;22.506;2023-03-01T06:05:28;100265.81;;;-2.06;70.37
62402;BME280;48440;51.224;22.506;2023-03-01T06:08:01;100268.28;;;-1.95;69.62
62402;BME280;48440;51.224;22.506;2023-03-01T06:10:27;100267.38;;;-1.86;69.91
62402;BME280;48440;51.224;22.506;2023-03-01T06:12:53;100272.41;;;-1.83;69.98
62402;BME280;48440;51.224;22.506;2023-03-01T06:15:23;100272.63;;;-1.76;69.53
62402;BME280;48440;51.224;22.506;2023-03-01T06:17:55;100276.34;;;-1.69;69.73
62402;BME280;48440;51.224;22.506;2023-03-01T06:20:25;100282.66;;;-1.70;69.41
62402;BME280;48440;51.224;22.506;2023-03-01T06:22:51;100280.69;;;-1.68;69.44
62402;BME280;48440;51.224;22.506;2023-03-01T06:25:19;100285.56;;;-1.63;69.24
62402;BME280;48440;51.224;22.506;2023-03-01T06:27:45;100283.97;;;-1.56;69.20
62402;BME280;48440;51.224;22.506;2023-03-01T06:32:58;100278.16;;;-1.52;69.12
62402;BME280;48440;51.224;22.506;2023-03-01T06:35:26;100273.22;;;-1.47;69.15
62402;BME280;48440;51.224;22.506;2023-03-01T06:37:55;100276.41;;;-1.43;69.05
62402;BME280;48440;51.224;22.506;2023-03-01T06:40:31;100278.69;;;-1.30;68.62
62402;BME280;48440;51.224;22.506;2023-03-01T06:43:00;100272.09;;;-1.18;68.49
62402;BME280;48440;51.224;22.506;2023-03-01T06:45:32;100266.22;;;-1.04;67.26
62402;BME280;48440;51.224;22.506;2023-03-01T06:48:04;100263.91;;;-0.99;67.45
62402;BME280;48440;51.224;22.506;2023-03-01T06:50:31;100268.44;;;-0.91;67.29
62402;BME280;48440;51.224;22.506;2023-03-01T06:52:59;100264.84;;;-0.82;66.90
62402;BME280;48440;51.224;22.506;2023-03-01T06:55:25;100261.53;;;-0.76;66.61
62402;BME280;48440;51.224;22.506;2023-03-01T06:58:02;100270.41;;;-0.68;66.87
62402;BME280;48440;51.224;22.506;2023-03-01T07:00:39;100271.28;;;-0.59;66.56
62402;BME280;48440;51.224;22.506;2023-03-01T07:03:09;100283.47;;;-0.56;66.73
62402;BME280;48440;51.224;22.506;2023-03-01T07:05:35;100272.50;;;-0.45;66.66
62402;BME280;48440;51.224;22.506;2023-03-01T07:08:01;100275.72;;;-0.33;66.27
62402;BME280;48440;51.224;22.506;2023-03-01T07:10:27;100277.94;;;-0.21;65.84
62402;BME280;48440;51.224;22.506;2023-03-01T07:12:57;100268.31;;;0.03;64.97
62402;BME280;48440;51.224;22.506;2023-03-01T07:15:23;100265.72;;;0.43;64.40
62402;BME280;48440;51.224;22.506;2023-03-01T07:17:49;100267.91;;;1.44;61.87
62402;BME280;48440;51.224;22.506;2023-03-01T07:20:19;100260.53;;;2.61;58.26
62402;BME280;48440;51.224;22.506;2023-03-01T07:22:50;100255.56;;;3.55;55.20
62402;BME280;48440;51.224;22.506;2023-03-01T07:25:15;100246.59;;;4.34;52.28
62402;BME280;48440;51.224;22.506;2023-03-01T07:27:41;100248.16;;;4.99;50.01
62402;BME280;48440;51.224;22.506;2023-03-01T07:30:07;100249.72;;;5.50;48.97
62402;BME280;48440;51.224;22.506;2023-03-01T07:32:34;100252.56;;;5.76;48.42
62402;BME280;48440;51.224;22.506;2023-03-01T07:34:59;100251.66;;;6.03;47.40
62402;BME280;48440;51.224;22.506;2023-03-01T07:37:25;100243.84;;;6.28;46.23
62402;BME280;48440;51.224;22.506;2023-03-01T07:39:51;100239.91;;;6.31;46.19
62402;BME280;48440;51.224;22.506;2023-03-01T07:42:16;100244.94;;;6.60;44.99
62402;BME280;48440;51.224;22.506;2023-03-01T07:44:42;100249.91;;;7.03;44.36
62402;BME280;48440;51.224;22.506;2023-03-01T07:47:07;100251.16;;;7.27;43.74
62402;BME280;48440;51.224;22.506;2023-03-01T07:49:33;100246.78;;;7.32;43.48
62402;BME280;48440;51.224;22.506;2023-03-01T07:51:59;100252.78;;;7.28;44.32
62402;BME280;48440;51.224;22.506;2023-03-01T07:54:25;100254.19;;;7.57;43.83
62402;BME280;48440;51.224;22.506;2023-03-01T07:56:51;100255.28;;;7.49;43.81
62402;BME280;48440;51.224;22.506;2023-03-01T07:59:17;100265.19;;;7.62;42.94
62402;BME280;48440;51.224;22.506;2023-03-01T08:01:43;100266.66;;;7.64;43.16
62402;BME280;48440;51.224;22.506;2023-03-01T08:04:08;100264.88;;;7.96;42.35
62402;BME280;48440;51.224;22.506;2023-03-01T08:06:35;100261.00;;;8.24;42.38
62402;BME280;48440;51.224;22.506;2023-03-01T08:09:01;100258.25;;;8.37;41.12
62402;BME280;48440;51.224;22.506;2023-03-01T08:11:27;100254.66;;;8.74;40.42
62402;BME280;48440;51.224;22.506;2023-03-01T08:13:54;100257.16;;;8.44;41.11
62402;BME280;48440;51.224;22.506;2023-03-01T08:16:20;100246.34;;;8.44;41.61
62402;BME280;48440;51.224;22.506;2023-03-01T08:18:45;100245.38;;;8.64;41.72
62402;BME280;48440;51.224;22.506;2023-03-01T08:21:13;100244.25;;;9.03;41.15
62402;BME280;48440;51.224;22.506;2023-03-01T08:23:40;100238.03;;;9.21;40.64
62402;BME280;48440;51.224;22.506;2023-03-01T08:26:12;100242.38;;;9.22;40.59
62402;BME280;48440;51.224;22.506;2023-03-01T08:28:39;100247.44;;;9.36;39.62
62402;BME280;48440;51.224;22.506;2023-03-01T08:33:43;100238.84;;;9.21;39.52
62402;BME280;48440;51.224;22.506;2023-03-01T08:36:09;100247.97;;;9.27;39.60
62402;BME280;48440;51.224;22.506;2023-03-01T08:38:35;100240.41;;;9.72;39.23
62402;BME280;48440;51.224;22.506;2023-03-01T08:41:02;100243.78;;;9.67;39.64
62402;BME280;48440;51.224;22.506;2023-03-01T08:43:28;100239.88;;;9.81;39.40
62402;BME280;48440;51.224;22.506;2023-03-01T08:45:54;100239.66;;;9.83;39.21
62402;BME280;48440;51.224;22.506;2023-03-01T08:48:20;100246.47;;;10.04;38.69
62402;BME280;48440;51.224;22.506;2023-03-01T08:50:46;100248.59;;;10.02;38.33
62402;BME280;48440;51.224;22.506;2023-03-01T08:53:12;100243.47;;;9.94;38.72
62402;BME280;48440;51.224;22.506;2023-03-01T08:55:38;100248.50;;;10.08;39.08
62402;BME280;48440;51.224;22.506;2023-03-01T08:58:03;100257.53;;;10.20;39.02
62402;BME280;48440;51.224;22.506;2023-03-01T09:00:29;100252.75;;;10.16;39.22
62402;BME280;48440;51.224;22.506;2023-03-01T09:02:55;100251.28;;;10.20;39.28
62402;BME280;48440;51.224;22.506;2023-03-01T09:05:20;100252.03;;;10.27;38.78
62402;BME280;48440;51.224;22.506;2023-03-01T09:07:46;100245.09;;;10.31;38.62
62402;BME280;48440;51.224;22.506;2023-03-01T09:10:12;100245.84;;;10.38;38.26
62402;BME280;48440;51.224;22.506;2023-03-01T09:12:38;100247.50;;;10.39;38.40
62402;BME280;48440;51.224;22.506;2023-03-01T09:15:04;100244.13;;;10.26;39.03
62402;BME280;48440;51.224;22.506;2023-03-01T09:17:29;100239.38;;;10.21;38.31
62402;BME280;48440;51.224;22.506;2023-03-01T09:19:55;100243.78;;;10.15;38.09
62402;BME280;48440;51.224;22.506;2023-03-01T09:22:21;100242.97;;;10.33;36.98
62402;BME280;48440;51.224;22.506;2023-03-01T09:24:46;100232.59;;;10.30;37.80
62402;BME280;48440;51.224;22.506;2023-03-01T09:27:12;100235.69;;;10.45;37.41
62402;BME280;48440;51.224;22.506;2023-03-01T09:29:39;100233.25;;;10.56;36.82
62402;BME280;48440;51.224;22.506;2023-03-01T09:32:05;100227.00;;;10.55;36.60
62402;BME280;48440;51.224;22.506;2023-03-01T09:34:33;100227.59;;;10.69;35.77
62402;BME280;48440;51.224;22.506;2023-03-01T09:37:19;100229.25;;;10.58;35.95
62402;BME280;48440;51.224;22.506;2023-03-01T09:39:44;100226.09;;;10.73;36.44
62402;BME280;48440;51.224;22.506;2023-03-01T09:42:11;100234.59;;;10.76;36.41
62402;BME280;48440;51.224;22.506;2023-03-01T09:44:50;100239.66;;;10.73;35.91
62402;BME280;48440;51.224;22.506;2023-03-01T09:47:30;100238.72;;;10.79;37.54
62402;BME280;48440;51.224;22.506;2023-03-01T09:50:16;100230.22;;;10.75;36.00
62402;BME280;48440;51.224;22.506;2023-03-01T09:53:07;100222.72;;;10.47;36.37
62402;BME280;48440;51.224;22.506;2023-03-01T09:55:41;100226.03;;;10.49;36.34
62402;BME280;48440;51.224;22.506;2023-03-01T10:00:54;100221.94;;;10.59;36.34
62402;BME280;48440;51.224;22.506;2023-03-01T10:03:39;100225.25;;;10.61;36.27
62402;BME280;48440;51.224;22.506;2023-03-01T10:06:10;100221.56;;;10.55;36.29
62402;BME280;48440;51.224;22.506;2023-03-01T10:08:42;100226.06;;;10.61;36.25
62402;BME280;48440;51.224;22.506;2023-03-01T10:11:21;100218.44;;;10.81;36.11
62402;BME280;48440;51.224;22.506;2023-03-01T10:16:55;100223.25;;;10.79;35.66
62402;BME280;48440;51.224;22.506;2023-03-01T10:19:43;100205.00;;;10.45;36.31
62402;BME280;48440;51.224;22.506;2023-03-01T10:22:17;100200.53;;;10.39;37.38
62402;BME280;48440;51.224;22.506;2023-03-01T10:24:47;100203.59;;;10.42;37.44
62402;BME280;48440;51.224;22.506;2023-03-01T10:27:25;100197.91;;;10.32;37.57
62402;BME280;48440;51.224;22.506;2023-03-01T10:32:20;100195.25;;;10.56;35.69
62402;BME280;48440;51.224;22.506;2023-03-01T10:34:47;100195.38;;;10.61;36.27
62402;BME280;48440;51.224;22.506;2023-03-01T10:37:17;100179.28;;;10.47;36.22
62402;BME280;48440;51.224;22.506;2023-03-01T10:42:39;100189.00;;;10.55;36.76
62402;BME280;48440;51.224;22.506;2023-03-01T10:45:31;100194.88;;;10.52;36.37
62402;BME280;48440;51.224;22.506;2023-03-01T10:48:18;100181.66;;;10.44;36.17
62402;BME280;48440;51.224;22.506;2023-03-01T10:50:47;100182.25;;;10.46;36.23
62402;BME280;48440;51.224;22.506;2023-03-01T10:53:23;100179.44;;;10.52;36.88
62402;BME280;48440;51.224;22.506;2023-03-01T10:56:03;100171.97;;;10.48;36.45
62402;BME280;48440;51.224;22.506;2023-03-01T10:58:30;100175.75;;;10.35;35.96
62402;BME280;48440;51.224;22.506;2023-03-01T11:01:05;100173.97;;;10.29;37.02
62402;BME280;48440;51.224;22.506;2023-03-01T11:03:34;100169.28;;;10.18;37.16
62402;BME280;48440;51.224;22.506;2023-03-01T11:08:45;100168.78;;;9.79;36.95
62402;BME280;48440;51.224;22.506;2023-03-01T11:11:19;100166.16;;;9.73;37.54
62402;BME280;48440;51.224;22.506;2023-03-01T11:13:54;100164.88;;;9.75;37.38
62402;BME280;48440;51.224;22.506;2023-03-01T11:16:26;100163.63;;;9.90;38.32
62402;BME280;48440;51.224;22.506;2023-03-01T11:18:57;100166.00;;;9.86;38.06
62402;BME280;48440;51.224;22.506;2023-03-01T11:21:24;100165.16;;;9.85;38.64
62402;BME280;48440;51.224;22.506;2023-03-01T11:23:51;100158.09;;;9.84;38.52
62402;BME280;48440;51.224;22.506;2023-03-01T11:26:18;100157.16;;;9.61;38.01
62402;BME280;48440;51.224;22.506;2023-03-01T11:28:48;100168.00;;;9.61;38.33
62402;BME280;48440;51.224;22.506;2023-03-01T11:31:16;100160.38;;;9.51;38.58
62402;BME280;48440;51.224;22.506;2023-03-01T11:33:49;100157.59;;;9.39;39.13
62402;BME280;48440;51.224;22.506;2023-03-01T11:41:42;100154.56;;;8.93;39.76
62402;BME280;48440;51.224;22.506;2023-03-01T11:44:19;100162.09;;;8.66;40.07
62402;BME280;48440;51.224;22.506;2023-03-01T11:46:51;100157.34;;;8.61;40.14
62402;BME280;48440;51.224;22.506;2023-03-01T11:57:35;100155.72;;;8.29;40.93
62402;BME280;48440;51.224;22.506;2023-03-01T12:11:40;100144.75;;;7.86;42.31
62402;BME280;48440;51.224;22.506;2023-03-01T12:25:27;100138.13;;;7.37;43.48
62402;BME280;48440;51.224;22.506;2023-03-01T12:36:29;100141.38;;;6.88;44.60
62402;BME280;48440;51.224;22.506;2023-03-01T12:50:19;100119.00;;;6.67;44.81
62402;BME280;48440;51.224;22.506;2023-03-01T12:52:54;100119.63;;;6.63;45.66
62402;BME280;48440;51.224;22.506;2023-03-01T13:03:58;100121.28;;;6.64;46.91
62402;BME280;48440;51.224;22.506;2023-03-01T13:09:37;100117.34;;;6.66;46.61
62402;BME280;48440;51.224;22.506;2023-03-01T13:15:30;100115.69;;;6.65;46.40
62402;BME280;48440;51.224;22.506;2023-03-01T13:17:57;100118.59;;;6.64;46.05
62402;BME280;48440;51.224;22.506;2023-03-01T13:26:10;100111.16;;;6.39;47.42
62402;BME280;48440;51.224;22.506;2023-03-01T13:33:56;100104.09;;;6.32;47.52
62402;BME280;48440;51.224;22.506;2023-03-01T13:38:56;100103.50;;;6.23;47.81
62402;BME280;48440;51.224;22.506;2023-03-01T13:46:38;100094.97;;;6.13;48.18
62402;BME280;48440;51.224;22.506;2023-03-01T13:49:04;100102.44;;;6.11;47.51
62402;BME280;48440;51.224;22.506;2023-03-01T13:51:30;100095.38;;;6.03;48.11
62402;BME280;48440;51.224;22.506;2023-03-01T13:53:57;100091.84;;;6.03;48.15
62402;BME280;48440;51.224;22.506;2023-03-01T13:56:24;100092.25;;;6.00;48.89
62402;BME280;48440;51.224;22.506;2023-03-01T14:01:31;100087.50;;;5.95;48.89
62402;BME280;48440;51.224;22.506;2023-03-01T14:03:58;100091.03;;;5.96;48.51
62402;BME280;48440;51.224;22.506;2023-03-01T14:06:29;100088.13;;;5.91;47.93
62402;BME280;48440;51.224;22.506;2023-03-01T14:15:06;100081.69;;;5.92;49.10
62402;BME280;48440;51.224;22.506;2023-03-01T14:22:48;100078.16;;;5.98;49.18
62402;BME280;48440;51.224;22.506;2023-03-01T14:25:17;100077.97;;;5.99;49.23
62402;BME280;48440;51.224;22.506;2023-03-01T14:27:44;100071.34;;;5.95;49.41
62402;BME280;48440;51.224;22.506;2023-03-01T14:30:36;100076.09;;;5.93;49.88
62402;BME280;48440;51.224;22.506;2023-03-01T14:33:05;100074.44;;;5.92;49.71
62402;BME280;48440;51.224;22.506;2023-03-01T14:35:36;100070.31;;;5.90;49.43
62402;BME280;48440;51.224;22.506;2023-03-01T14:38:03;100068.78;;;5.80;49.08
62402;BME280;48440;51.224;22.506;2023-03-01T14:40:35;100068.38;;;5.77;49.15
62402;BME280;48440;51.224;22.506;2023-03-01T14:43:12;100066.28;;;5.72;49.56
62402;BME280;48440;51.224;22.506;2023-03-01T14:45:47;100061.53;;;5.68;50.36
62402;BME280;48440;51.224;22.506;2023-03-01T14:48:13;100060.50;;;5.62;50.11
62402;BME280;48440;51.224;22.506;2023-03-01T14:50:42;100053.22;;;5.56;50.07
62402;BME280;48440;51.224;22.506;2023-03-01T14:53:25;100056.09;;;5.48;50.39
62402;BME280;48440;51.224;22.506;2023-03-01T14:55:55;100057.56;;;5.44;50.29
62402;BME280;48440;51.224;22.506;2023-03-01T14:58:24;100050.50;;;5.36;50.76
62402;BME280;48440;51.224;22.506;2023-03-01T15:00:53;100046.75;;;5.31;50.72
62402;BME280;48440;51.224;22.506;2023-03-01T15:05:52;100058.09;;;5.20;50.82
62402;BME280;48440;51.224;22.506;2023-03-01T15:08:20;100050.63;;;5.15;51.10
62402;BME280;48440;51.224;22.506;2023-03-01T15:13:40;100053.88;;;5.04;51.49
62402;BME280;48440;51.224;22.506;2023-03-01T15:16:11;100049.94;;;5.00;51.24
62402;BME280;48440;51.224;22.506;2023-03-01T15:18:43;100054.88;;;4.96;51.23
62402;BME280;48440;51.224;22.506;2023-03-01T15:21:31;100045.56;;;4.92;50.95
62402;BME280;48440;51.224;22.506;2023-03-01T15:24:35;100047.00;;;4.88;51.43
62402;BME280;48440;51.224;22.506;2023-03-01T15:26:58;100050.47;;;4.82;51.19
62402;BME280;48440;51.224;22.506;2023-03-01T15:29:29;100036.41;;;4.80;51.89
62402;BME280;48440;51.224;22.506;2023-03-01T15:32:01;100032.06;;;4.79;51.77
62402;BME280;48440;51.224;22.506;2023-03-01T15:34:30;100034.75;;;4.79;51.60
62402;BME280;48440;51.224;22.506;2023-03-01T15:36:59;100026.44;;;4.74;51.84
62402;BME280;48440;51.224;22.506;2023-03-01T15:39:56;100036.56;;;4.72;52.18
62402;BME280;48440;51.224;22.506;2023-03-01T15:45:10;100029.72;;;4.69;51.80
62402;BME280;48440;51.224;22.506;2023-03-01T15:47:39;100024.75;;;4.66;52.13
62402;BME280;48440;51.224;22.506;2023-03-01T15:50:16;100018.94;;;4.63;52.96
62402;BME280;48440;51.224;22.506;2023-03-01T15:52:42;100027.22;;;4.61;52.94
62402;BME280;48440;51.224;22.506;2023-03-01T15:55:20;100021.59;;;4.56;53.67
62402;BME280;48440;51.224;22.506;2023-03-01T15:57:47;100025.91;;;4.51;53.74
62402;BME280;48440;51.224;22.506;2023-03-01T16:00:14;100030.00;;;4.47;53.78
62402;BME280;48440;51.224;22.506;2023-03-01T16:02:42;100019.84;;;4.42;54.26
62402;BME280;48440;51.224;22.506;2023-03-01T16:05:28;100022.31;;;4.37;53.98
62402;BME280;48440;51.224;22.506;2023-03-01T16:07:56;100031.59;;;4.34;54.24
62402;BME280;48440;51.224;22.506;2023-03-01T16:13:00;100018.50;;;4.25;54.58
62402;BME280;48440;51.224;22.506;2023-03-01T16:15:34;100015.75;;;4.18;55.00
62402;BME280;48440;51.224;22.506;2023-03-01T16:18:07;100011.19;;;4.12;55.58
62402;BME280;48440;51.224;22.506;2023-03-01T16:20:35;100015.88;;;4.03;55.71
62402;BME280;48440;51.224;22.506;2023-03-01T16:23:03;100016.84;;;3.96;55.84
62402;BME280;48440;51.224;22.506;2023-03-01T16:25:32;100009.16;;;3.93;56.00